This is the latest recevied weather packets stored in our database for station/object KO6MEX-13. If no packets are shown the sender has not sent any weather packets the latest 10 day(s).
| Time | Temp. | Humidity | Pressure | Rain* | Wind** | Luminosity | Snow |
|---|---|---|---|---|---|---|---|
| 1777947044 | 15.56° C | 69% | 1018.1 hPa | 0 mm | - | 30 W/m² | - |
| 1777946744 | 15° C | 69% | 1018 hPa | 0 mm | - | 35 W/m² | - |
| 1777946442 | 15.56° C | 69% | 1018 hPa | 0 mm | - | 37 W/m² | - |
| 1777946139 | 15.56° C | 69% | 1017.9 hPa | 0 mm | - | 36 W/m² | - |
| 1777945835 | 15.56° C | 68% | 1017.9 hPa | 0 mm | - | 36 W/m² | - |
| 1777945532 | 15.56° C | 67% | 1018 hPa | 0 mm | - | 38 W/m² | - |
| 1777945229 | 16.11° C | 66% | 1018.3 hPa | 0 mm | - | 54 W/m² | - |
| 1777944926 | 16.67° C | 65% | 1018 hPa | 0 mm | - | 107 W/m² | - |
| 1777944624 | 16.67° C | 65% | 1018.1 hPa | 0 mm | - | 143 W/m² | - |
| 1777944322 | 16.67° C | 65% | 1017.9 hPa | 0 mm | - | 161 W/m² | - |
| 1777944019 | 16.67° C | 64% | 1018.3 hPa | 0 mm | - | 164 W/m² | - |
| 1777943714 | 16.67° C | 62% | 1018 hPa | 0 mm | - | 192 W/m² | - |
| 1777943411 | 17.22° C | 62% | 1018 hPa | 0 mm | - | 62 W/m² | - |
| 1777943106 | 17.22° C | 61% | 1017.9 hPa | 0 mm | - | 225 W/m² | - |
| 1777942803 | 17.22° C | 60% | 1018.1 hPa | 0 mm | - | 247 W/m² | - |
| 1777942500 | 17.22° C | 62% | 1018.1 hPa | 0 mm | - | 268 W/m² | - |
| 1777942198 | 17.22° C | 60% | 1018.1 hPa | 0 mm | - | 281 W/m² | - |
| 1777941894 | 16.67° C | 62% | 1018.1 hPa | 0 mm | - | 296 W/m² | - |
| 1777941591 | 17.22° C | 60% | 1017.9 hPa | 0 mm | - | 318 W/m² | - |
| 1777941288 | 17.22° C | 60% | 1018.1 hPa | 0 mm | - | 314 W/m² | - |
| 1777940984 | 18.33° C | 55% | 1018 hPa | 0 mm | - | 327 W/m² | - |
| 1777940681 | 17.78° C | 57% | 1018.1 hPa | 0 mm | - | 379 W/m² | - |
| 1777940379 | 17.22° C | 60% | 1017.9 hPa | 0 mm | - | 339 W/m² | - |
| 1777940076 | 17.78° C | 61% | 1018 hPa | 0 mm | - | 357 W/m² | - |
| 1777939773 | 18.33° C | 61% | 1018.2 hPa | 0 mm | - | 401 W/m² | - |
* Rain latest hour (hover to see other rain measurements)
** Current wind speed in m/s (hover to see current wind gust speed)